createdAt,value
2019-03-05T00:02:15.937Z,6.44
2019-03-05T00:04:45.256Z,6.46
2019-03-05T00:07:14.597Z,6.51
2019-03-05T00:09:44.211Z,6.48
2019-03-05T00:12:13.934Z,6.45
2019-03-05T00:14:43.499Z,6.52
2019-03-05T00:17:13.098Z,6.51
2019-03-05T00:19:42.383Z,6.54
2019-03-05T00:22:11.700Z,6.53
2019-03-05T00:25:03.877Z,6.55
2019-03-05T00:27:35.718Z,6.50
2019-03-05T00:30:26.472Z,6.52
2019-03-05T00:33:18.784Z,6.51
2019-03-05T00:36:04.211Z,6.52
2019-03-05T00:39:04.982Z,6.51
2019-03-05T00:41:51.257Z,6.51
2019-03-05T00:45:14.703Z,6.50
2019-03-05T00:47:48.890Z,6.50
2019-03-05T00:50:34.851Z,6.49
2019-03-05T00:53:20.673Z,6.53
2019-03-05T00:55:58.227Z,6.52
2019-03-05T00:58:35.119Z,6.52
2019-03-05T01:01:27.401Z,6.46
2019-03-05T01:04:22.211Z,6.51
2019-03-05T01:06:51.803Z,6.44
2019-03-05T01:09:21.688Z,6.45
2019-03-05T01:11:51.306Z,6.45
2019-03-05T01:14:22.037Z,6.41
2019-03-05T01:16:51.839Z,6.36
2019-03-05T01:19:21.409Z,6.40
2019-03-05T01:21:50.722Z,6.43
2019-03-05T01:24:20.332Z,6.44
2019-03-05T01:26:49.901Z,6.47
2019-03-05T01:29:19.504Z,6.31
2019-03-05T01:31:57.590Z,6.42
2019-03-05T01:34:31.532Z,6.40
2019-03-05T01:37:02.493Z,6.44
2019-03-05T01:39:33.717Z,6.40
2019-03-05T01:42:03.492Z,6.44
2019-03-05T01:44:33.179Z,6.38
2019-03-05T01:47:02.771Z,6.51
2019-03-05T01:49:32.416Z,6.54
2019-03-05T01:52:01.740Z,6.55
2019-03-05T01:54:31.086Z,6.44
2019-03-05T01:57:00.382Z,6.46
2019-03-05T01:59:29.963Z,6.43
2019-03-05T02:01:59.284Z,6.51
2019-03-05T02:04:28.568Z,6.54
2019-03-05T02:06:58.176Z,6.59
2019-03-05T02:09:27.745Z,6.56
2019-03-05T02:11:57.055Z,6.62
2019-03-05T02:14:26.371Z,6.67
2019-03-05T02:16:55.952Z,6.64
2019-03-05T02:19:42.997Z,6.60
2019-03-05T02:22:29.487Z,6.63
2019-03-05T02:25:24.738Z,6.69
2019-03-05T02:28:34.670Z,6.63
2019-03-05T02:31:17.418Z,6.69
2019-03-05T02:34:18.310Z,6.81
2019-03-05T02:37:19.417Z,6.78
2019-03-05T02:40:10.100Z,6.85
2019-03-05T02:42:58.969Z,6.86
2019-03-05T02:45:44.992Z,6.94
2019-03-05T02:48:37.041Z,7.03
2019-03-05T02:51:36.292Z,7.04
2019-03-05T02:54:37.529Z,7.10
2019-03-05T02:57:08.444Z,7.11
2019-03-05T02:59:38.150Z,7.06
2019-03-05T03:02:15.432Z,7.09
2019-03-05T03:04:46.368Z,7.16
2019-03-05T03:07:15.952Z,7.22
2019-03-05T03:09:52.690Z,7.24
2019-03-05T03:12:22.023Z,7.23
2019-03-05T03:14:51.619Z,7.25
2019-03-05T03:17:20.923Z,7.26
2019-03-05T03:19:50.254Z,7.34
2019-03-05T03:22:19.837Z,7.30
2019-03-05T03:24:49.343Z,7.19
2019-03-05T03:27:18.646Z,7.36
2019-03-05T03:29:48.031Z,7.36
2019-03-05T03:32:17.352Z,7.37
2019-03-05T03:34:46.965Z,7.33
2019-03-05T03:37:16.277Z,7.34
2019-03-05T03:39:45.612Z,7.29
2019-03-05T03:42:14.953Z,7.29
2019-03-05T03:44:44.268Z,7.24
2019-03-05T03:47:13.602Z,7.28
2019-03-05T03:49:43.185Z,7.27
2019-03-05T03:52:12.520Z,7.32
2019-03-05T03:54:41.812Z,7.25
2019-03-05T03:57:11.152Z,7.24
2019-03-05T03:59:40.493Z,7.19
2019-03-05T04:02:10.099Z,7.16
2019-03-05T04:04:40.144Z,7.15
2019-03-05T04:07:09.821Z,7.08
2019-03-05T04:09:39.145Z,7.10
2019-03-05T04:12:08.478Z,7.09
2019-03-05T04:14:37.995Z,7.06
2019-03-05T04:17:07.297Z,7.08
2019-03-05T04:19:37.186Z,7.06
2019-03-05T04:22:06.791Z,7.05
2019-03-05T04:24:36.448Z,7.00
2019-03-05T04:27:05.762Z,7.08
2019-03-05T04:29:35.331Z,7.05
2019-03-05T04:32:04.676Z,7.06
2019-03-05T04:34:34.260Z,7.10
2019-03-05T04:37:03.864Z,7.10
2019-03-05T04:39:33.459Z,7.16
2019-03-05T04:42:02.793Z,7.15
2019-03-05T04:44:36.793Z,7.13
2019-03-05T04:47:06.402Z,7.13
2019-03-05T04:49:43.138Z,7.14
2019-03-05T04:52:14.572Z,7.09
2019-03-05T04:54:43.870Z,7.05
2019-03-05T04:57:13.467Z,7.06
2019-03-05T04:59:42.762Z,6.99
2019-03-05T05:02:12.358Z,7.00
2019-03-05T05:04:41.944Z,6.92
2019-03-05T05:07:11.294Z,6.89
2019-03-05T05:09:40.874Z,6.93
2019-03-05T05:12:10.179Z,6.90
2019-03-05T05:14:39.660Z,6.91
2019-03-05T05:17:09.233Z,6.88
2019-03-05T05:19:38.845Z,6.89
2019-03-05T05:22:08.170Z,6.91
2019-03-05T05:24:37.509Z,6.88
2019-03-05T05:27:06.821Z,6.87
2019-03-05T05:29:36.167Z,6.84
2019-03-05T05:32:05.593Z,6.89
2019-03-05T05:34:36.537Z,6.96
2019-03-05T05:37:05.867Z,6.96
2019-03-05T05:40:30.719Z,6.87
2019-03-05T05:43:00.053Z,6.86
2019-03-05T05:45:39.771Z,6.88
2019-03-05T05:48:09.100Z,6.89
2019-03-05T05:50:38.438Z,6.84
2019-03-05T05:53:07.766Z,6.90
2019-03-05T05:55:37.380Z,6.92
2019-03-05T05:58:06.708Z,6.90
2019-03-05T06:00:37.686Z,6.97
2019-03-05T06:03:07.275Z,6.95
2019-03-05T06:05:36.704Z,6.98
2019-03-05T06:08:06.096Z,6.99
2019-03-05T06:10:35.422Z,6.97
2019-03-05T06:13:05.103Z,6.93
2019-03-05T06:15:34.510Z,7.05
2019-03-05T06:18:04.182Z,7.02
2019-03-05T06:20:33.485Z,7.02
2019-03-05T06:23:03.103Z,6.96
2019-03-05T06:25:32.924Z,6.95
2019-03-05T06:28:02.226Z,6.89
2019-03-05T06:30:43.099Z,6.94
2019-03-05T06:33:12.787Z,7.01
2019-03-05T06:35:42.401Z,7.01
2019-03-05T06:38:11.690Z,6.88
2019-03-05T06:40:41.085Z,6.94
2019-03-05T06:43:10.415Z,7.05
2019-03-05T06:45:39.753Z,6.99
2019-03-05T06:48:09.409Z,7.03
2019-03-05T06:50:39.227Z,7.08
2019-03-05T06:53:08.552Z,7.17
2019-03-05T06:55:37.847Z,7.05
2019-03-05T06:58:07.526Z,7.19
2019-03-05T07:00:42.758Z,7.23
2019-03-05T07:03:12.075Z,7.22
2019-03-05T07:06:36.569Z,7.41
2019-03-05T07:09:10.778Z,7.59
2019-03-05T07:11:56.951Z,7.51
2019-03-05T07:14:56.445Z,7.40
2019-03-05T07:17:45.975Z,7.50
2019-03-05T07:20:44.246Z,7.69
2019-03-05T07:23:53.635Z,7.59
2019-03-05T07:26:22.996Z,7.59
2019-03-05T07:28:52.432Z,7.39
2019-03-05T07:31:21.742Z,7.46
2019-03-05T07:33:51.051Z,7.21
2019-03-05T07:36:20.750Z,7.10
2019-03-05T07:38:50.415Z,6.95
2019-03-05T07:41:19.831Z,7.04
2019-03-05T07:43:55.280Z,7.14
2019-03-05T07:46:24.968Z,7.11
2019-03-05T07:48:54.572Z,7.20
2019-03-05T07:51:23.904Z,7.19
2019-03-05T07:53:53.210Z,7.32
2019-03-05T07:56:22.520Z,7.42
2019-03-05T07:58:51.829Z,7.52
2019-03-05T08:01:22.563Z,7.51
2019-03-05T08:03:52.041Z,7.62
2019-03-05T08:06:21.617Z,7.56
2019-03-05T08:09:31.311Z,7.71
2019-03-05T08:12:29.964Z,7.97
2019-03-05T08:15:09.508Z,8.06
2019-03-05T08:17:38.803Z,8.02
2019-03-05T08:20:12.576Z,8.04
2019-03-05T08:22:42.241Z,8.00
2019-03-05T08:25:12.975Z,7.92
2019-03-05T08:27:42.655Z,8.04
2019-03-05T08:30:16.365Z,8.00
2019-03-05T08:32:45.682Z,7.94
2019-03-05T08:35:15.006Z,7.88
2019-03-05T08:37:44.572Z,7.80
2019-03-05T08:40:16.947Z,7.81
2019-03-05T08:42:46.262Z,7.97
2019-03-05T08:45:16.571Z,8.05
2019-03-05T08:47:46.281Z,8.15
2019-03-05T08:50:16.231Z,8.15
2019-03-05T08:52:45.530Z,8.27
2019-03-05T08:55:18.868Z,8.46
2019-03-05T08:57:48.192Z,8.36
2019-03-05T09:00:20.124Z,8.28
2019-03-05T09:02:49.562Z,8.39
2019-03-05T09:05:19.880Z,8.43
2019-03-05T09:07:49.673Z,8.75
2019-03-05T09:10:27.234Z,9.01
2019-03-05T09:12:56.573Z,8.89
2019-03-05T09:15:25.871Z,8.62
2019-03-05T09:17:55.259Z,8.48
2019-03-05T09:20:24.854Z,8.67
2019-03-05T09:22:55.115Z,8.71
2019-03-05T09:25:24.921Z,8.97
2019-03-05T09:27:55.363Z,8.91
2019-03-05T09:30:25.682Z,9.29
2019-03-05T09:32:55.275Z,9.53
2019-03-05T09:35:24.897Z,9.44
2019-03-05T09:37:54.475Z,9.07
2019-03-05T09:40:27.695Z,8.92
2019-03-05T09:42:57.613Z,8.95
2019-03-05T09:45:28.254Z,8.81
2019-03-05T09:47:58.099Z,8.91
2019-03-05T09:50:27.413Z,8.85
2019-03-05T09:52:57.001Z,8.79
2019-03-05T09:55:26.953Z,8.60
2019-03-05T09:58:07.636Z,8.48
2019-03-05T10:00:29.350Z,8.33
2019-03-05T10:02:58.667Z,8.45
2019-03-05T10:05:28.257Z,8.53
2019-03-05T10:07:57.640Z,8.70
2019-03-05T10:10:30.891Z,8.61
2019-03-05T10:13:04.281Z,8.65
2019-03-05T10:15:32.248Z,8.39
2019-03-05T10:18:12.323Z,8.55
2019-03-05T10:20:35.521Z,8.50
2019-03-05T10:23:04.983Z,8.49
2019-03-05T10:25:34.655Z,8.53
2019-03-05T10:28:04.662Z,8.50
2019-03-05T10:30:43.206Z,8.47
2019-03-05T10:33:13.089Z,8.58
2019-03-05T10:35:42.389Z,8.51
2019-03-05T10:38:11.847Z,8.57
2019-03-05T10:40:47.379Z,8.80
2019-03-05T10:43:18.032Z,8.99
2019-03-05T10:45:48.641Z,9.10
2019-03-05T10:48:20.382Z,8.91
2019-03-05T10:50:49.718Z,9.13
2019-03-05T10:53:19.019Z,9.22
2019-03-05T10:55:49.270Z,9.25
2019-03-05T10:58:19.746Z,9.04
2019-03-05T11:00:54.206Z,8.84
2019-03-05T11:03:25.337Z,8.73
2019-03-05T11:05:54.642Z,8.63
2019-03-05T11:08:25.713Z,8.37
2019-03-05T11:10:55.771Z,8.35
2019-03-05T11:13:25.097Z,8.36
2019-03-05T11:15:57.952Z,8.55
2019-03-05T11:18:29.812Z,8.65
2019-03-05T11:20:58.684Z,8.74
2019-03-05T11:23:27.989Z,9.37
2019-03-05T11:25:57.368Z,9.48
2019-03-05T11:28:26.701Z,10.02
2019-03-05T11:30:56.408Z,10.09
2019-03-05T11:33:26.125Z,10.05
2019-03-05T11:35:55.473Z,9.78
2019-03-05T11:38:24.815Z,9.55
2019-03-05T11:40:54.109Z,9.54
2019-03-05T11:43:23.729Z,9.40
2019-03-05T11:45:53.333Z,8.97
2019-03-05T11:48:22.956Z,8.50
2019-03-05T11:50:52.275Z,8.46
2019-03-05T11:53:21.853Z,8.50
2019-03-05T11:55:51.571Z,8.70
2019-03-05T11:58:20.878Z,8.90
2019-03-05T12:00:51.821Z,8.60
2019-03-05T12:03:21.414Z,8.68
2019-03-05T12:05:50.730Z,8.67
2019-03-05T12:08:20.055Z,8.83
2019-03-05T12:10:49.355Z,8.76
2019-03-05T12:13:18.816Z,8.84
2019-03-05T12:15:48.405Z,8.74
2019-03-05T12:18:17.717Z,8.68
2019-03-05T12:20:47.306Z,8.46
2019-03-05T12:23:16.645Z,8.18
2019-03-05T12:25:46.224Z,8.04
2019-03-05T12:28:15.526Z,7.47
2019-03-05T12:30:44.835Z,7.21
2019-03-05T12:33:14.423Z,6.79
2019-03-05T12:35:43.813Z,6.57
2019-03-05T12:38:13.400Z,6.41
2019-03-05T12:40:42.767Z,6.50
2019-03-05T12:43:12.309Z,6.28
2019-03-05T12:45:41.636Z,6.40
2019-03-05T12:48:10.949Z,6.24
2019-03-05T12:50:40.556Z,6.26
2019-03-05T12:53:10.171Z,6.25
2019-03-05T12:55:39.479Z,6.12
2019-03-05T12:58:09.187Z,5.89
2019-03-05T13:00:38.996Z,5.94
2019-03-05T13:03:08.602Z,6.05
2019-03-05T13:05:37.899Z,5.92
2019-03-05T13:08:07.234Z,5.72
2019-03-05T13:10:37.740Z,5.52
2019-03-05T13:13:10.473Z,5.43
2019-03-05T13:15:40.899Z,5.42
2019-03-05T13:18:10.215Z,5.51
2019-03-05T13:20:39.534Z,5.21
2019-03-05T13:23:10.505Z,5.34
2019-03-05T13:25:39.858Z,5.51
2019-03-05T13:28:09.246Z,5.49
2019-03-05T13:30:40.315Z,5.39
2019-03-05T13:33:10.435Z,5.80
2019-03-05T13:35:39.751Z,5.70
2019-03-05T13:38:10.871Z,5.88
2019-03-05T13:40:40.761Z,6.19
2019-03-05T13:43:10.330Z,5.90
2019-03-05T13:45:43.890Z,5.76
2019-03-05T13:48:40.687Z,5.85
2019-03-05T13:51:43.994Z,5.89
2019-03-05T13:54:27.118Z,6.38
2019-03-05T13:57:29.873Z,6.30
2019-03-05T13:59:59.583Z,6.45
2019-03-05T14:02:29.707Z,6.90
2019-03-05T14:05:10.882Z,7.16
2019-03-05T14:08:12.233Z,6.84
2019-03-05T14:10:41.812Z,7.07
2019-03-05T14:13:12.766Z,6.92
2019-03-05T14:15:44.084Z,6.96
2019-03-05T14:18:13.428Z,7.10
2019-03-05T14:20:42.740Z,7.14
2019-03-05T14:23:12.301Z,7.18
2019-03-05T14:25:41.641Z,7.23
2019-03-05T14:28:11.338Z,7.09
2019-03-05T14:30:41.195Z,6.87
2019-03-05T14:33:10.581Z,6.84
2019-03-05T14:35:40.047Z,6.82
2019-03-05T14:38:09.630Z,6.79
2019-03-05T14:40:38.951Z,6.83
2019-03-05T14:43:08.269Z,7.04
2019-03-05T14:45:37.973Z,6.86
2019-03-05T14:48:07.341Z,6.67
2019-03-05T14:50:36.782Z,6.81
2019-03-05T14:53:06.409Z,6.91
2019-03-05T14:55:35.991Z,6.86
2019-03-05T14:58:05.733Z,7.00
2019-03-05T15:00:35.092Z,6.88
2019-03-05T15:03:04.721Z,6.75
2019-03-05T15:05:34.547Z,6.70
2019-03-05T15:08:03.893Z,6.73
2019-03-05T15:10:33.537Z,7.00
2019-03-05T15:13:14.932Z,7.08
2019-03-05T15:15:34.022Z,7.25
2019-03-05T15:18:03.682Z,7.55
2019-03-05T15:20:33.331Z,7.75
2019-03-05T15:23:02.649Z,7.00
2019-03-05T15:25:32.410Z,7.02
2019-03-05T15:28:01.764Z,7.22
2019-03-05T15:30:31.286Z,7.43
2019-03-05T15:33:00.945Z,7.17
2019-03-05T15:35:30.344Z,7.31
2019-03-05T15:38:00.211Z,7.15
2019-03-05T15:40:30.309Z,7.26
2019-03-05T15:42:59.710Z,7.27
2019-03-05T15:45:29.017Z,7.26
2019-03-05T15:47:58.493Z,7.51
2019-03-05T15:50:30.404Z,7.47
2019-03-05T15:52:59.819Z,7.31
2019-03-05T15:55:29.182Z,7.24
2019-03-05T15:57:58.485Z,7.10
2019-03-05T16:00:32.549Z,7.06
2019-03-05T16:03:02.302Z,6.97
2019-03-05T16:05:31.971Z,6.79
2019-03-05T16:08:01.631Z,6.93
2019-03-05T16:10:31.525Z,6.99
2019-03-05T16:13:01.134Z,6.91
2019-03-05T16:15:30.751Z,6.96
2019-03-05T16:18:01.385Z,6.82
2019-03-05T16:20:31.409Z,6.97
2019-03-05T16:23:01.288Z,6.87
2019-03-05T16:25:31.110Z,6.89
2019-03-05T16:28:02.241Z,6.83
2019-03-05T16:30:47.454Z,6.80
2019-03-05T16:33:38.236Z,6.88
2019-03-05T16:36:18.325Z,6.90
2019-03-05T16:38:56.731Z,6.95
2019-03-05T16:41:43.795Z,6.96
2019-03-05T16:44:13.298Z,7.04
2019-03-05T16:46:51.610Z,6.86
2019-03-05T16:49:25.312Z,6.98
2019-03-05T16:51:59.494Z,6.93
2019-03-05T16:54:46.462Z,6.80
2019-03-05T16:57:33.763Z,6.66
2019-03-05T17:00:05.809Z,6.73
2019-03-05T17:02:39.728Z,6.59
2019-03-05T17:05:13.100Z,6.63
2019-03-05T17:07:46.986Z,6.71
2019-03-05T17:10:19.124Z,6.65
2019-03-05T17:12:48.469Z,6.56
2019-03-05T17:15:18.318Z,6.49
2019-03-05T17:17:47.736Z,6.55
2019-03-05T17:20:17.415Z,6.61
2019-03-05T17:22:46.722Z,6.63
2019-03-05T17:25:20.320Z,6.73
2019-03-05T17:27:49.619Z,6.66
2019-03-05T17:30:18.930Z,6.69
2019-03-05T17:32:48.489Z,6.82
2019-03-05T17:35:18.072Z,6.66
2019-03-05T17:37:47.671Z,6.59
2019-03-05T17:40:17.253Z,6.63
2019-03-05T17:42:46.574Z,6.70
2019-03-05T17:45:21.925Z,6.61
2019-03-05T17:47:51.464Z,6.47
2019-03-05T17:50:21.033Z,6.50
2019-03-05T17:52:50.626Z,6.46
2019-03-05T17:55:27.792Z,6.41
2019-03-05T17:57:57.111Z,6.41
2019-03-05T18:00:31.296Z,6.31
2019-03-05T18:03:00.834Z,6.27
2019-03-05T18:05:30.160Z,6.28
2019-03-05T18:07:59.812Z,6.24
2019-03-05T18:10:29.124Z,6.14
2019-03-05T18:12:58.741Z,6.16
2019-03-05T18:15:29.281Z,6.12
2019-03-05T18:17:58.574Z,6.07
2019-03-05T18:20:27.912Z,6.09
2019-03-05T18:22:57.220Z,6.00
2019-03-05T18:25:26.599Z,6.04
2019-03-05T18:27:56.413Z,6.04
2019-03-05T18:30:28.701Z,6.02
2019-03-05T18:33:00.790Z,5.96
2019-03-05T18:35:30.455Z,6.00
2019-03-05T18:38:00.047Z,6.02
2019-03-05T18:40:29.791Z,5.95
2019-03-05T18:43:02.144Z,5.94
2019-03-05T18:45:39.822Z,5.94
2019-03-05T18:48:09.534Z,5.95
2019-03-05T18:50:38.853Z,5.97
2019-03-05T18:53:08.542Z,5.82
2019-03-05T18:55:37.955Z,5.77
2019-03-05T18:58:07.739Z,5.76
2019-03-05T19:00:37.861Z,5.79
2019-03-05T19:03:11.239Z,5.74
2019-03-05T19:05:41.089Z,5.73
2019-03-05T19:08:11.160Z,5.69
2019-03-05T19:10:41.296Z,5.69
2019-03-05T19:13:10.916Z,5.71
2019-03-05T19:15:40.554Z,5.74
2019-03-05T19:18:10.133Z,5.67
2019-03-05T19:20:39.431Z,5.60
2019-03-05T19:23:08.745Z,5.66
2019-03-05T19:25:44.228Z,5.66
2019-03-05T19:28:14.103Z,5.55
2019-03-05T19:30:47.622Z,5.55
2019-03-05T19:33:17.259Z,5.56
2019-03-05T19:35:46.859Z,5.56
2019-03-05T19:38:16.440Z,5.44
2019-03-05T19:40:47.843Z,5.40
2019-03-05T19:43:17.559Z,5.45
2019-03-05T19:45:46.871Z,5.56
2019-03-05T19:48:16.569Z,5.50
2019-03-05T19:50:46.388Z,5.47
2019-03-05T19:53:15.991Z,5.42
2019-03-05T19:55:45.741Z,5.45
2019-03-05T19:58:15.393Z,5.43
2019-03-05T20:00:55.956Z,5.36
2019-03-05T20:03:25.642Z,5.37
2019-03-05T20:05:55.270Z,5.48
2019-03-05T20:08:24.569Z,5.39
2019-03-05T20:10:54.146Z,5.42
2019-03-05T20:13:23.941Z,5.44
2019-03-05T20:15:53.303Z,5.45
2019-03-05T20:18:23.068Z,5.42
2019-03-05T20:20:53.405Z,5.43
2019-03-05T20:23:23.372Z,5.54
2019-03-05T20:25:53.107Z,5.42
2019-03-05T20:28:22.820Z,5.43
2019-03-05T20:30:52.424Z,5.47
2019-03-05T20:33:22.030Z,5.39
2019-03-05T20:35:51.802Z,5.37
2019-03-05T20:38:21.549Z,5.27
2019-03-05T20:40:51.143Z,5.38
2019-03-05T20:43:20.896Z,5.38
2019-03-05T20:45:57.630Z,5.37
2019-03-05T20:48:27.242Z,5.44
2019-03-05T20:50:56.590Z,5.35
2019-03-05T20:53:26.214Z,5.41
2019-03-05T20:55:55.538Z,5.34
2019-03-05T20:58:25.035Z,5.39
2019-03-05T21:00:54.672Z,5.37
2019-03-05T21:03:24.252Z,5.38
2019-03-05T21:05:54.002Z,5.35
2019-03-05T21:08:23.590Z,5.26
2019-03-05T21:10:53.196Z,5.29
2019-03-05T21:13:22.803Z,5.37
2019-03-05T21:15:52.131Z,5.38
2019-03-05T21:18:21.439Z,5.37
2019-03-05T21:20:50.738Z,5.32
2019-03-05T21:23:20.134Z,5.30
2019-03-05T21:25:49.456Z,5.35
2019-03-05T21:28:19.035Z,5.24
2019-03-05T21:30:48.361Z,5.26
2019-03-05T21:33:17.994Z,5.23
2019-03-05T21:35:47.601Z,5.35
2019-03-05T21:38:17.165Z,5.29
2019-03-05T21:40:46.845Z,5.28
2019-03-05T21:43:16.444Z,5.30
2019-03-05T21:45:50.791Z,5.29
2019-03-05T21:48:20.109Z,5.23
2019-03-05T21:50:49.422Z,5.25
2019-03-05T21:53:18.750Z,5.22
2019-03-05T21:55:48.866Z,5.22
2019-03-05T21:58:18.510Z,5.25
2019-03-05T22:00:50.461Z,5.22
2019-03-05T22:03:22.676Z,5.24
2019-03-05T22:05:52.613Z,5.16
2019-03-05T22:08:22.671Z,5.15
2019-03-05T22:10:52.375Z,5.11
2019-03-05T22:13:21.916Z,5.12
2019-03-05T22:15:51.603Z,5.12
2019-03-05T22:18:20.931Z,5.07
2019-03-05T22:20:50.605Z,5.16
2019-03-05T22:23:20.347Z,5.03
2019-03-05T22:25:49.940Z,5.00
2019-03-05T22:28:19.542Z,5.08
2019-03-05T22:30:48.968Z,4.97
2019-03-05T22:33:18.302Z,5.07
2019-03-05T22:35:47.639Z,5.05
2019-03-05T22:38:17.263Z,5.00
2019-03-05T22:40:46.947Z,4.96
2019-03-05T22:43:16.892Z,4.98
2019-03-05T22:45:46.589Z,4.93
2019-03-05T22:48:16.001Z,4.92
2019-03-05T22:50:46.533Z,4.93
2019-03-05T22:53:16.248Z,4.96
2019-03-05T22:55:45.784Z,4.90
2019-03-05T22:58:15.126Z,4.96
2019-03-05T23:00:56.720Z,4.85
2019-03-05T23:03:29.166Z,4.81
2019-03-05T23:06:00.613Z,4.79
2019-03-05T23:08:29.896Z,4.81
2019-03-05T23:13:36.626Z,4.86
2019-03-05T23:16:06.233Z,4.91
2019-03-05T23:18:35.811Z,4.85
2019-03-05T23:21:05.155Z,4.80
2019-03-05T23:23:34.505Z,4.80
2019-03-05T23:26:03.983Z,4.85
2019-03-05T23:28:33.315Z,4.83
2019-03-05T23:31:02.924Z,4.92
2019-03-05T23:33:32.252Z,4.86
2019-03-05T23:36:02.040Z,4.83
2019-03-05T23:38:31.520Z,4.88
2019-03-05T23:41:00.849Z,4.93
2019-03-05T23:43:30.279Z,4.84
2019-03-05T23:45:59.855Z,4.86
2019-03-05T23:48:29.423Z,4.83
2019-03-05T23:50:59.167Z,4.80
2019-03-05T23:53:28.552Z,4.71
2019-03-05T23:55:57.859Z,4.74
2019-03-05T23:58:27.202Z,4.66
